Time;durP1;ratioP1;P1;durP2;ratioP2;P2;SDS_P1;SDS_P2;PMS_P1;PMS_P2;Temp;Humidity;BMP_temperature;BMP_pressure;BME280_temperature;BME280_humidity;BME280_pressure;Samples;Min_cycle;Max_cycle;Signal;HPM_P1;HPM_P2
2023/05/14 00:00:18;;;;;;;;;;;10.40;99.90;;;;;;5132083;27;19923;-54
2023/05/14 00:02:45;;;;;;;;;;;10.40;99.90;;;;;;5133207;27;19931;-53
2023/05/14 00:05:11;;;;;;;;;;;10.40;99.90;;;;;;5134551;27;20406;-56
2023/05/14 00:07:38;;;;;;;;;;;10.40;99.90;;;;;;5132757;27;20742;-54
2023/05/14 00:10:05;;;;;;;;;;;10.40;99.90;;;;;;5125744;27;20444;-54
2023/05/14 00:12:32;;;;;;;;;;;10.30;99.90;;;;;;5132352;27;19919;-55
2023/05/14 00:14:59;;;;;;;;;;;10.30;99.90;;;;;;5113330;27;19934;-52
2023/05/14 00:17:26;;;;;;;;;;;10.30;99.90;;;;;;5128468;27;19919;-54
2023/05/14 00:19:52;;;;;;;;;;;10.20;99.90;;;;;;5123531;27;20379;-56
2023/05/14 00:22:19;;;;;;;;;;;10.30;99.90;;;;;;5122101;27;19968;-53
2023/05/14 00:24:46;;;;;;;;;;;10.20;99.90;;;;;;5130987;27;19934;-53
2023/05/14 00:27:13;;;;;;;;;;;10.10;99.90;;;;;;5121683;27;19920;-53
2023/05/14 00:29:40;;;;;;;;;;;10.20;99.90;;;;;;5112546;27;20371;-53
2023/05/14 00:32:06;;;;;;;;;;;10.20;99.90;;;;;;5114202;27;19919;-54
2023/05/14 00:34:33;;;;;;;;;;;10.20;99.90;;;;;;5133507;27;20017;-54
2023/05/14 00:37:00;;;;;;;;;;;10.10;99.90;;;;;;5112342;27;19919;-53
2023/05/14 00:39:27;;;;;;;;;;;10.10;99.90;;;;;;5109710;27;20276;-56
2023/05/14 00:41:54;;;;;;;;;;;10.10;99.90;;;;;;5132076;27;19919;-53
2023/05/14 00:44:21;;;;;;;;;;;10.90;99.90;;;;;;5102819;28;19923;-53
2023/05/14 00:46:47;;;;;;;;;;;10.10;99.90;;;;;;5106027;27;20000;-55
2023/05/14 00:49:14;;;;;;;;;;;10.20;99.90;;;;;;5100055;27;19947;-57
2023/05/14 00:51:41;;;;;;;;;;;10.20;99.90;;;;;;5114304;27;19972;-55
2023/05/14 00:54:08;;;;;;;;;;;10.20;99.90;;;;;;5110672;27;20048;-55
2023/05/14 00:56:35;;;;;;;;;;;10.20;99.90;;;;;;5112405;27;19919;-53
2023/05/14 00:59:01;;;;;;;;;;;10.10;99.90;;;;;;5099507;27;19919;-56
2023/05/14 01:01:28;;;;;;;;;;;10.10;99.90;;;;;;5107051;28;19924;-54
2023/05/14 01:03:56;;;;;;;;;;;10.10;99.90;;;;;;5112016;27;19919;-53
2023/05/14 01:06:27;;;;;;;;;;;10.10;99.90;;;;;;5103359;28;20379;-53
2023/05/14 01:08:57;;;;;;;;;;;10.00;99.90;;;;;;5110831;27;20104;-57
2023/05/14 01:11:49;;;;;;;;;;;10.00;99.90;;;;;;5124997;27;19972;-53
2023/05/14 01:14:20;;;;;;;;;;;9.90;99.90;;;;;;5116292;27;19919;-56
2023/05/14 01:16:48;;;;;;;;;;;10.00;99.90;;;;;;5108748;27;19973;-56
2023/05/14 01:19:26;;;;;;;;;;;10.00;99.90;;;;;;5109019;28;19920;-56
2023/05/14 01:21:53;;;;;;;;;;;10.00;99.90;;;;;;5130632;27;19934;-52
2023/05/14 01:24:19;;;;;;;;;;;10.00;99.90;;;;;;5123644;27;19919;-56
2023/05/14 01:26:46;;;;;;;;;;;10.00;99.90;;;;;;5113489;27;20367;-56
2023/05/14 01:29:15;;;;;;;;;;;10.00;99.90;;;;;;5109628;28;19919;-52
2023/05/14 01:31:44;;;;;;;;;;;9.90;99.90;;;;;;5095851;28;19968;-54
2023/05/14 01:34:12;;;;;;;;;;;9.90;99.90;;;;;;5112872;27;20275;-57
2023/05/14 01:36:39;;;;;;;;;;;10.00;99.90;;;;;;5109474;28;20290;-57
2023/05/14 01:39:08;;;;;;;;;;;10.00;99.90;;;;;;5104266;27;19920;-52
2023/05/14 01:41:36;;;;;;;;;;;9.90;99.90;;;;;;5125245;27;19964;-56
2023/05/14 01:44:02;;;;;;;;;;;9.80;99.90;;;;;;5122141;27;19923;-55
2023/05/14 01:46:32;;;;;;;;;;;9.80;99.90;;;;;;5132025;27;19981;-57
2023/05/14 01:49:00;;;;;;;;;;;9.80;99.90;;;;;;5102782;28;19994;-54
2023/05/14 01:51:26;;;;;;;;;;;9.80;99.90;;;;;;5106307;28;19925;-53
2023/05/14 01:53:53;;;;;;;;;;;9.80;99.90;;;;;;5112316;28;20363;-55
2023/05/14 01:56:24;;;;;;;;;;;9.80;99.90;;;;;;5099734;28;20229;-57
2023/05/14 01:58:51;;;;;;;;;;;9.80;99.90;;;;;;5110962;27;19927;-56
2023/05/14 02:01:18;;;;;;;;;;;9.90;99.90;;;;;;5110350;28;19928;-56
2023/05/14 02:03:46;;;;;;;;;;;10.30;99.90;;;;;;5112536;28;19972;-56
2023/05/14 02:06:13;;;;;;;;;;;9.90;99.90;;;;;;5103233;28;20463;-53
2023/05/14 02:08:39;;;;;;;;;;;9.90;99.90;;;;;;5110258;28;19919;-53
2023/05/14 02:11:06;;;;;;;;;;;9.90;99.90;;;;;;5111898;28;19927;-57
2023/05/14 02:13:33;;;;;;;;;;;9.90;99.90;;;;;;5105525;28;20532;-55
2023/05/14 02:16:00;;;;;;;;;;;9.90;99.90;;;;;;5110834;28;19923;-53
2023/05/14 02:18:26;;;;;;;;;;;10.60;99.90;;;;;;5120504;28;19919;-54
2023/05/14 02:20:53;;;;;;;;;;;10.50;99.90;;;;;;5111342;28;19931;-54
2023/05/14 02:23:20;;;;;;;;;;;9.80;99.90;;;;;;5105815;28;19919;-57
2023/05/14 02:26:03;;;;;;;;;;;9.80;99.90;;;;;;5124440;28;19931;-57
2023/05/14 02:28:30;;;;;;;;;;;9.70;99.90;;;;;;5107524;28;19972;-57
2023/05/14 02:30:57;;;;;;;;;;;9.70;99.90;;;;;;5125062;28;20279;-57
2023/05/14 02:33:24;;;;;;;;;;;9.60;99.90;;;;;;5111760;28;19945;-57
2023/05/14 02:35:50;;;;;;;;;;;9.60;99.90;;;;;;5120134;28;19919;-57
2023/05/14 02:38:17;;;;;;;;;;;9.60;99.90;;;;;;5109042;28;19919;-57
2023/05/14 02:40:44;;;;;;;;;;;9.60;99.90;;;;;;5100530;28;19927;-56
2023/05/14 02:43:10;;;;;;;;;;;9.60;99.90;;;;;;5095575;28;19924;-52
2023/05/14 02:45:37;;;;;;;;;;;9.50;99.90;;;;;;5107338;28;20010;-57
2023/05/14 02:48:04;;;;;;;;;;;9.50;99.90;;;;;;5125880;27;20396;-56
2023/05/14 02:50:30;;;;;;;;;;;9.60;99.90;;;;;;5112589;28;19923;-56
2023/05/14 02:52:57;;;;;;;;;;;9.60;99.90;;;;;;5104030;28;19973;-57
2023/05/14 02:55:25;;;;;;;;;;;9.50;99.90;;;;;;5104251;28;19928;-57
2023/05/14 02:57:52;;;;;;;;;;;9.50;99.90;;;;;;5123510;27;19934;-56
2023/05/14 03:00:19;;;;;;;;;;;9.40;99.90;;;;;;5132113;27;20410;-54
2023/05/14 03:02:46;;;;;;;;;;;9.40;99.90;;;;;;5117014;27;19990;-57
2023/05/14 03:05:13;;;;;;;;;;;9.40;99.90;;;;;;5115963;27;20006;-56
2023/05/14 03:07:40;;;;;;;;;;;9.50;99.90;;;;;;5109953;28;19919;-55
2023/05/14 03:10:06;;;;;;;;;;;9.50;99.90;;;;;;5114533;27;20371;-56
2023/05/14 03:12:33;;;;;;;;;;;9.40;99.90;;;;;;5116159;27;19919;-57
2023/05/14 03:15:00;;;;;;;;;;;9.50;99.90;;;;;;5111327;28;19919;-54
2023/05/14 03:17:26;;;;;;;;;;;9.50;99.90;;;;;;5114797;28;19965;-58
2023/05/14 03:19:53;;;;;;;;;;;9.50;99.90;;;;;;5125160;27;20384;-56
2023/05/14 03:22:20;;;;;;;;;;;9.40;99.90;;;;;;5116380;27;19919;-56
2023/05/14 03:24:46;;;;;;;;;;;10.20;99.90;;;;;;5112206;28;20356;-56
2023/05/14 03:27:13;;;;;;;;;;;9.50;99.90;;;;;;5104871;28;19920;-57
2023/05/14 03:29:40;;;;;;;;;;;9.50;99.90;;;;;;5123193;27;19973;-57
2023/05/14 03:32:07;;;;;;;;;;;9.50;99.90;;;;;;5106277;27;19920;-55
2023/05/14 03:34:33;;;;;;;;;;;9.50;99.90;;;;;;5109009;28;19923;-58
2023/05/14 03:37:00;;;;;;;;;;;9.50;99.90;;;;;;5097054;27;19969;-58
2023/05/14 03:39:27;;;;;;;;;;;9.50;99.90;;;;;;5121623;27;20340;-54
2023/05/14 03:41:55;;;;;;;;;;;9.50;99.90;;;;;;5130778;27;19919;-57
2023/05/14 03:44:23;;;;;;;;;;;9.60;99.90;;;;;;5110350;28;20390;-56
2023/05/14 03:46:50;;;;;;;;;;;9.60;99.90;;;;;;5104257;28;19920;-54
2023/05/14 03:49:16;;;;;;;;;;;9.50;99.90;;;;;;5131546;27;19997;-53
2023/05/14 03:51:43;;;;;;;;;;;9.50;99.90;;;;;;5124782;27;19919;-56
2023/05/14 03:54:10;;;;;;;;;;;9.40;99.90;;;;;;5131606;27;19923;-55
2023/05/14 03:56:37;;;;;;;;;;;9.40;99.90;;;;;;5108782;28;19919;-54
2023/05/14 03:59:03;;;;;;;;;;;9.40;99.90;;;;;;5123819;27;19919;-57
2023/05/14 04:01:31;;;;;;;;;;;9.40;99.90;;;;;;5101217;28;19927;-55
2023/05/14 04:03:57;;;;;;;;;;;9.50;99.90;;;;;;5115392;27;19919;-56
2023/05/14 04:06:25;;;;;;;;;;;9.50;99.90;;;;;;5124510;27;19980;-58
2023/05/14 04:08:51;;;;;;;;;;;9.50;99.90;;;;;;5134937;27;19968;-55
2023/05/14 04:11:18;;;;;;;;;;;9.50;99.90;;;;;;5105685;27;19968;-57
2023/05/14 04:13:45;;;;;;;;;;;9.60;99.90;;;;;;5127155;27;19920;-55
2023/05/14 04:16:12;;;;;;;;;;;9.60;99.90;;;;;;5113403;27;19923;-56
2023/05/14 04:18:39;;;;;;;;;;;9.60;99.90;;;;;;5127912;27;19920;-57
2023/05/14 04:21:05;;;;;;;;;;;9.60;99.90;;;;;;5105126;27;19927;-56
2023/05/14 04:23:32;;;;;;;;;;;9.60;99.90;;;;;;5124582;27;20454;-57
2023/05/14 04:25:59;;;;;;;;;;;9.60;99.90;;;;;;5118842;27;20411;-57
2023/05/14 04:28:25;;;;;;;;;;;9.50;99.90;;;;;;5131316;27;19959;-55
2023/05/14 04:30:52;;;;;;;;;;;9.60;99.90;;;;;;5130886;27;20021;-57
2023/05/14 04:33:19;;;;;;;;;;;9.50;99.90;;;;;;5129507;27;19924;-56
2023/05/14 04:35:45;;;;;;;;;;;9.50;99.90;;;;;;5119286;27;19964;-56
2023/05/14 04:38:13;;;;;;;;;;;9.50;99.90;;;;;;5108081;27;19923;-57
2023/05/14 04:40:43;;;;;;;;;;;9.50;99.90;;;;;;5131298;27;19923;-57
2023/05/14 04:43:09;;;;;;;;;;;9.50;99.90;;;;;;5122781;27;19978;-57
2023/05/14 04:45:36;;;;;;;;;;;9.50;99.90;;;;;;5120458;27;19985;-56
2023/05/14 04:48:03;;;;;;;;;;;9.60;99.90;;;;;;5114346;27;20322;-58
2023/05/14 04:50:30;;;;;;;;;;;9.60;99.90;;;;;;5132420;27;19923;-57
2023/05/14 04:52:56;;;;;;;;;;;9.70;99.90;;;;;;5128283;27;19920;-56
2023/05/14 04:55:23;;;;;;;;;;;9.70;99.90;;;;;;5128608;27;19950;-57
2023/05/14 04:57:50;;;;;;;;;;;9.70;99.90;;;;;;5120518;27;19931;-55
2023/05/14 05:00:16;;;;;;;;;;;9.80;99.90;;;;;;5119383;27;19973;-57
2023/05/14 05:02:43;;;;;;;;;;;9.90;99.90;;;;;;5127786;27;19919;-57
2023/05/14 05:05:10;;;;;;;;;;;10.00;99.90;;;;;;5131581;27;19966;-56
2023/05/14 05:07:36;;;;;;;;;;;10.00;99.90;;;;;;5124735;27;19927;-56
2023/05/14 05:10:03;;;;;;;;;;;10.80;99.90;;;;;;5125293;27;20433;-57
2023/05/14 05:12:30;;;;;;;;;;;10.00;99.90;;;;;;5119348;27;19923;-57
2023/05/14 05:14:57;;;;;;;;;;;10.10;99.90;;;;;;5120041;27;19924;-56
2023/05/14 05:17:24;;;;;;;;;;;10.10;99.90;;;;;;5133371;27;19921;-57
2023/05/14 05:19:51;;;;;;;;;;;10.20;99.90;;;;;;5124270;27;19926;-56
2023/05/14 05:22:18;;;;;;;;;;;10.10;99.90;;;;;;5132160;27;19952;-57
2023/05/14 05:24:45;;;;;;;;;;;10.20;99.90;;;;;;5130877;27;19929;-55
2023/05/14 05:27:14;;;;;;;;;;;10.20;99.90;;;;;;5121252;27;19919;-56
2023/05/14 05:29:42;;;;;;;;;;;10.10;99.90;;;;;;5118822;27;19954;-55
2023/05/14 05:32:08;;;;;;;;;;;10.00;99.90;;;;;;5132388;27;19919;-57
2023/05/14 05:34:35;;;;;;;;;;;10.00;99.90;;;;;;5130099;27;20382;-53
2023/05/14 05:37:02;;;;;;;;;;;10.10;99.90;;;;;;5132099;27;19923;-55
2023/05/14 05:39:33;;;;;;;;;;;10.10;99.90;;;;;;5117859;27;19951;-56
2023/05/14 05:42:01;;;;;;;;;;;10.30;99.90;;;;;;5111903;28;19935;-57
2023/05/14 05:44:27;;;;;;;;;;;10.40;99.90;;;;;;5118857;27;19920;-54
2023/05/14 05:46:55;;;;;;;;;;;10.50;99.90;;;;;;5128192;27;19968;-56
2023/05/14 05:49:23;;;;;;;;;;;10.60;99.90;;;;;;5131101;27;19952;-56
2023/05/14 05:51:49;;;;;;;;;;;10.70;99.90;;;;;;5114651;27;20395;-55
2023/05/14 05:54:16;;;;;;;;;;;10.70;99.90;;;;;;5130712;27;19933;-57
2023/05/14 05:56:43;;;;;;;;;;;10.70;99.90;;;;;;5125632;28;20358;-56
2023/05/14 05:59:09;;;;;;;;;;;10.70;99.90;;;;;;5127384;28;19931;-55
2023/05/14 06:01:36;;;;;;;;;;;10.60;99.90;;;;;;5116640;28;20392;-57
2023/05/14 06:04:05;;;;;;;;;;;10.70;99.90;;;;;;5129689;28;19920;-57
2023/05/14 06:06:31;;;;;;;;;;;10.90;99.90;;;;;;5131725;28;20007;-57
2023/05/14 06:09:00;;;;;;;;;;;11.10;99.90;;;;;;5130893;28;19919;-56
2023/05/14 06:11:27;;;;;;;;;;;11.30;99.90;;;;;;5112515;28;20014;-55
2023/05/14 06:13:53;;;;;;;;;;;11.40;99.90;;;;;;5131984;28;19951;-56
2023/05/14 06:16:20;;;;;;;;;;;11.50;99.90;;;;;;5130822;28;19928;-57
2023/05/14 06:18:47;;;;;;;;;;;11.50;99.90;;;;;;5130975;28;20287;-57
2023/05/14 06:21:14;;;;;;;;;;;11.40;99.90;;;;;;5120395;27;19961;-56
2023/05/14 06:23:40;;;;;;;;;;;11.40;99.90;;;;;;5124299;27;19988;-57
2023/05/14 06:26:07;;;;;;;;;;;11.60;99.90;;;;;;5132998;27;20507;-58
2023/05/14 06:28:34;;;;;;;;;;;11.70;99.90;;;;;;5136088;27;19965;-53
2023/05/14 06:31:00;;;;;;;;;;;12.40;99.90;;;;;;5126867;27;20283;-56
2023/05/14 06:33:30;;;;;;;;;;;12.00;99.90;;;;;;5124032;27;20022;-57
2023/05/14 06:35:57;;;;;;;;;;;12.10;99.90;;;;;;5131338;27;19927;-54
2023/05/14 06:38:24;;;;;;;;;;;12.10;99.90;;;;;;5127120;27;19923;-56
2023/05/14 06:40:52;;;;;;;;;;;12.10;99.90;;;;;;5135293;27;19976;-58
2023/05/14 06:43:18;;;;;;;;;;;12.20;99.90;;;;;;5135349;27;19919;-57
2023/05/14 06:45:48;;;;;;;;;;;12.60;99.90;;;;;;5134464;27;19926;-56
2023/05/14 06:48:17;;;;;;;;;;;12.10;99.90;;;;;;5126430;27;19959;-57
2023/05/14 06:50:44;;;;;;;;;;;12.10;99.90;;;;;;5134749;27;19923;-58
2023/05/14 06:53:11;;;;;;;;;;;12.10;99.90;;;;;;5125277;27;19973;-56
2023/05/14 06:55:38;;;;;;;;;;;12.20;99.90;;;;;;5134712;27;19930;-57
2023/05/14 06:58:08;;;;;;;;;;;12.20;99.90;;;;;;5135059;27;19986;-57
2023/05/14 07:00:34;;;;;;;;;;;12.20;99.90;;;;;;5135119;27;19972;-58
2023/05/14 07:03:01;;;;;;;;;;;12.20;99.90;;;;;;5123387;27;19972;-57
2023/05/14 07:05:28;;;;;;;;;;;12.20;99.90;;;;;;5125805;27;19930;-57
2023/05/14 07:07:54;;;;;;;;;;;12.30;99.90;;;;;;5134950;27;19919;-58
2023/05/14 07:10:21;;;;;;;;;;;13.20;99.90;;;;;;5126327;27;19930;-58
2023/05/14 07:12:48;;;;;;;;;;;12.50;99.90;;;;;;5129849;27;19919;-55
2023/05/14 07:15:15;;;;;;;;;;;12.90;99.90;;;;;;5134944;27;20318;-57
2023/05/14 07:17:41;;;;;;;;;;;12.50;99.90;;;;;;5134718;27;20307;-56
2023/05/14 07:20:08;;;;;;;;;;;12.70;99.90;;;;;;5124837;27;20006;-57
2023/05/14 07:22:35;;;;;;;;;;;12.80;99.90;;;;;;5135082;27;19933;-57
2023/05/14 07:25:02;;;;;;;;;;;12.80;99.90;;;;;;5134168;27;19951;-56
2023/05/14 07:27:29;;;;;;;;;;;12.90;99.90;;;;;;5122350;27;20398;-56
2023/05/14 07:29:55;;;;;;;;;;;13.20;99.90;;;;;;5129967;27;19920;-57
2023/05/14 07:32:23;;;;;;;;;;;13.20;99.90;;;;;;5124843;27;19947;-57
2023/05/14 07:34:50;;;;;;;;;;;13.40;99.90;;;;;;5127145;27;19923;-57
2023/05/14 07:37:17;;;;;;;;;;;13.60;99.90;;;;;;5131426;27;19925;-58
2023/05/14 07:39:44;;;;;;;;;;;13.40;99.90;;;;;;5130318;27;19972;-56
2023/05/14 07:42:11;;;;;;;;;;;13.50;99.90;;;;;;5133928;27;19926;-57
2023/05/14 07:44:50;;;;;;;;;;;13.50;99.90;;;;;;5133997;27;19984;-57
2023/05/14 07:47:17;;;;;;;;;;;13.70;99.90;;;;;;5127498;27;20338;-58
2023/05/14 07:49:44;;;;;;;;;;;13.90;99.90;;;;;;5128590;27;20256;-58
2023/05/14 07:52:10;;;;;;;;;;;13.90;99.90;;;;;;5121974;27;19974;-54
2023/05/14 07:54:37;;;;;;;;;;;14.10;99.90;;;;;;5132883;27;19964;-57
2023/05/14 07:57:04;;;;;;;;;;;14.40;99.90;;;;;;5125944;27;19919;-57
2023/05/14 07:59:31;;;;;;;;;;;14.70;99.90;;;;;;5117610;27;19927;-58
2023/05/14 08:01:57;;;;;;;;;;;15.00;99.90;;;;;;5130043;27;19989;-57
2023/05/14 08:04:25;;;;;;;;;;;14.90;99.90;;;;;;5134376;27;19919;-58
2023/05/14 08:06:51;;;;;;;;;;;15.20;99.90;;;;;;5125155;27;19923;-54
2023/05/14 08:09:18;;;;;;;;;;;15.20;99.90;;;;;;5132885;27;19954;-56
2023/05/14 08:11:45;;;;;;;;;;;15.30;99.90;;;;;;5126862;27;19973;-57
2023/05/14 08:14:11;;;;;;;;;;;15.30;99.90;;;;;;5125566;27;19920;-57
2023/05/14 08:16:38;;;;;;;;;;;15.20;99.90;;;;;;5125683;27;19945;-55
2023/05/14 08:19:05;;;;;;;;;;;15.40;99.90;;;;;;5125344;27;20330;-57
2023/05/14 08:21:31;;;;;;;;;;;15.20;99.90;;;;;;5105990;27;19966;-57
2023/05/14 08:23:58;;;;;;;;;;;15.50;99.90;;;;;;5118179;27;19927;-56
2023/05/14 08:26:25;;;;;;;;;;;15.80;99.90;;;;;;5118049;27;19923;-57
2023/05/14 08:28:52;;;;;;;;;;;15.80;99.90;;;;;;5126560;27;19919;-57
2023/05/14 08:31:19;;;;;;;;;;;16.00;99.90;;;;;;5126487;27;20446;-57
2023/05/14 08:33:46;;;;;;;;;;;15.80;99.90;;;;;;5133505;27;20368;-57
2023/05/14 08:36:12;;;;;;;;;;;15.90;99.90;;;;;;5126754;27;19969;-57
2023/05/14 08:38:39;;;;;;;;;;;16.20;99.90;;;;;;5132103;27;19970;-57
2023/05/14 08:41:06;;;;;;;;;;;16.50;99.90;;;;;;5129275;27;19923;-57
2023/05/14 08:43:38;;;;;;;;;;;16.20;99.90;;;;;;5133214;27;20632;-56
2023/05/14 08:46:05;;;;;;;;;;;16.20;99.90;;;;;;5129490;27;19969;-58
2023/05/14 08:48:33;;;;;;;;;;;16.10;99.90;;;;;;5131306;27;19920;-58
2023/05/14 08:51:00;;;;;;;;;;;16.40;99.90;;;;;;5130755;27;19919;-56
2023/05/14 08:53:27;;;;;;;;;;;16.40;99.90;;;;;;5129792;27;19919;-57
2023/05/14 08:55:53;;;;;;;;;;;16.50;99.90;;;;;;5131303;27;19919;-58
2023/05/14 08:58:20;;;;;;;;;;;16.60;99.90;;;;;;5132170;27;19971;-59
2023/05/14 09:00:47;;;;;;;;;;;16.70;99.90;;;;;;5129584;27;19959;-57
2023/05/14 09:03:14;;;;;;;;;;;16.90;99.90;;;;;;5126016;27;19919;-58
2023/05/14 09:05:41;;;;;;;;;;;16.90;99.90;;;;;;5126940;27;20451;-58
2023/05/14 09:08:08;;;;;;;;;;;16.90;99.90;;;;;;5127764;27;20450;-58
2023/05/14 09:10:34;;;;;;;;;;;17.00;99.90;;;;;;5123773;27;19958;-55
2023/05/14 09:13:01;;;;;;;;;;;17.00;99.90;;;;;;5132329;27;19930;-57
2023/05/14 09:15:28;;;;;;;;;;;17.10;99.90;;;;;;5115012;27;20383;-53
2023/05/14 09:17:55;;;;;;;;;;;17.10;99.90;;;;;;5112336;28;19919;-54
2023/05/14 09:20:23;;;;;;;;;;;17.20;99.90;;;;;;5130133;27;19926;-57
2023/05/14 09:22:53;;;;;;;;;;;17.20;99.90;;;;;;5123165;27;20651;-57
2023/05/14 09:25:25;;;;;;;;;;;17.00;99.90;;;;;;5129862;27;19993;-57
2023/05/14 09:27:53;;;;;;;;;;;16.80;99.90;;;;;;5119143;27;19942;-54
2023/05/14 09:30:23;;;;;;;;;;;16.50;99.90;;;;;;5118742;27;20411;-55
2023/05/14 09:32:51;;;;;;;;;;;16.20;99.90;;;;;;5119458;27;19984;-54
2023/05/14 09:35:24;;;;;;;;;;;16.00;99.90;;;;;;5129683;27;19966;-57
2023/05/14 09:37:52;;;;;;;;;;;15.70;99.90;;;;;;5119964;27;19973;-58
2023/05/14 09:40:19;;;;;;;;;;;15.30;99.90;;;;;;5123776;27;19927;-54
2023/05/14 09:42:47;;;;;;;;;;;15.10;99.90;;;;;;5123588;27;19920;-56
2023/05/14 09:45:14;;;;;;;;;;;14.90;99.90;;;;;;5115090;27;20002;-57
2023/05/14 09:47:41;;;;;;;;;;;14.80;99.90;;;;;;5123042;27;20684;-54
2023/05/14 09:50:08;;;;;;;;;;;14.60;99.90;;;;;;5116269;27;19930;-56
2023/05/14 09:52:36;;;;;;;;;;;14.50;99.90;;;;;;5127930;27;20392;-54
2023/05/14 09:55:03;;;;;;;;;;;14.60;99.90;;;;;;5128811;27;19919;-58
2023/05/14 09:57:29;;;;;;;;;;;14.60;99.90;;;;;;5103618;28;19927;-54
2023/05/14 09:59:56;;;;;;;;;;;14.50;99.90;;;;;;5129637;27;19972;-55
2023/05/14 10:02:24;;;;;;;;;;;14.40;99.90;;;;;;5124659;28;19939;-58
2023/05/14 10:04:57;;;;;;;;;;;14.30;99.90;;;;;;5132187;27;19923;-58
2023/05/14 10:07:28;;;;;;;;;;;14.30;99.90;;;;;;5129043;28;20043;-57
2023/05/14 10:10:00;;;;;;;;;;;14.30;99.90;;;;;;5126914;28;19919;-57
2023/05/14 10:12:32;;;;;;;;;;;14.40;99.90;;;;;;5124108;28;19923;-58
2023/05/14 10:15:02;;;;;;;;;;;14.50;99.90;;;;;;5132500;27;19923;-57
2023/05/14 10:17:30;;;;;;;;;;;14.60;99.90;;;;;;5120928;28;20444;-57
2023/05/14 10:19:58;;;;;;;;;;;14.70;99.90;;;;;;5126360;27;19968;-57
2023/05/14 10:22:25;;;;;;;;;;;14.80;99.90;;;;;;5112200;28;19927;-57
2023/05/14 10:24:52;;;;;;;;;;;14.90;99.90;;;;;;5131529;28;19919;-56
2023/05/14 10:27:20;;;;;;;;;;;14.90;99.90;;;;;;5124859;28;19919;-57
2023/05/14 10:29:52;;;;;;;;;;;15.10;99.90;;;;;;5130009;28;19919;-58
2023/05/14 10:32:24;;;;;;;;;;;15.30;99.90;;;;;;5129172;27;19919;-57
2023/05/14 10:34:52;;;;;;;;;;;15.30;99.90;;;;;;5125831;28;19923;-57
2023/05/14 10:37:23;;;;;;;;;;;15.40;99.90;;;;;;5128181;28;19920;-58
2023/05/14 10:39:50;;;;;;;;;;;15.40;99.90;;;;;;5127754;28;19964;-58
2023/05/14 10:42:16;;;;;;;;;;;15.30;99.90;;;;;;5130400;28;20291;-57
2023/05/14 10:45:06;;;;;;;;;;;15.50;99.90;;;;;;5131190;27;20391;-58
2023/05/14 10:47:37;;;;;;;;;;;15.60;99.90;;;;;;5125949;28;19919;-56
2023/05/14 10:50:04;;;;;;;;;;;15.60;99.90;;;;;;5130566;27;20319;-58
2023/05/14 10:52:32;;;;;;;;;;;15.70;99.90;;;;;;5129395;27;19926;-57
2023/05/14 10:55:01;;;;;;;;;;;15.90;99.90;;;;;;5129973;28;19934;-57
2023/05/14 10:57:30;;;;;;;;;;;15.90;99.90;;;;;;5127892;27;19954;-58
2023/05/14 10:59:58;;;;;;;;;;;16.00;99.90;;;;;;5116291;28;19938;-56
2023/05/14 11:02:26;;;;;;;;;;;15.90;99.90;;;;;;5124187;28;19927;-56
2023/05/14 11:04:58;;;;;;;;;;;15.90;99.90;;;;;;5129574;27;19924;-57
2023/05/14 11:07:30;;;;;;;;;;;16.00;99.90;;;;;;5124634;27;19927;-57
2023/05/14 11:09:59;;;;;;;;;;;15.80;99.90;;;;;;5119974;27;20279;-56
2023/05/14 11:12:26;;;;;;;;;;;15.70;99.90;;;;;;5134690;27;19919;-57
2023/05/14 11:14:55;;;;;;;;;;;15.60;99.90;;;;;;5129039;27;19965;-56
2023/05/14 11:17:23;;;;;;;;;;;15.50;99.90;;;;;;5116098;27;19963;-58
2023/05/14 11:19:50;;;;;;;;;;;15.80;99.90;;;;;;5133239;27;20002;-56
2023/05/14 11:22:16;;;;;;;;;;;15.90;99.90;;;;;;5125815;27;19920;-56
2023/05/14 11:24:43;;;;;;;;;;;16.00;99.90;;;;;;5116844;27;19920;-53
2023/05/14 11:27:10;;;;;;;;;;;16.40;99.90;;;;;;5135485;27;19969;-56
2023/05/14 11:29:37;;;;;;;;;;;16.80;99.90;;;;;;5133726;27;20074;-56
2023/05/14 11:32:04;;;;;;;;;;;17.10;99.90;;;;;;5119645;27;19928;-57
2023/05/14 11:34:31;;;;;;;;;;;17.20;99.90;;;;;;5123802;27;20391;-55
2023/05/14 11:36:58;;;;;;;;;;;17.20;99.90;;;;;;5134472;27;19923;-57
2023/05/14 11:39:24;;;;;;;;;;;17.20;99.90;;;;;;5131360;27;19920;-57
2023/05/14 11:41:51;;;;;;;;;;;17.20;99.90;;;;;;5116053;27;20371;-57
2023/05/14 11:44:18;;;;;;;;;;;17.10;99.90;;;;;;5132017;27;20006;-56
2023/05/14 11:46:57;;;;;;;;;;;16.90;99.90;;;;;;5112387;27;19920;-57
2023/05/14 11:49:24;;;;;;;;;;;16.70;99.90;;;;;;5129543;27;19920;-56
2023/05/14 11:51:58;;;;;;;;;;;16.30;99.90;;;;;;5128275;27;19919;-53
2023/05/14 11:54:25;;;;;;;;;;;16.00;99.90;;;;;;5132349;27;19983;-56
2023/05/14 11:56:53;;;;;;;;;;;15.60;99.90;;;;;;5127416;27;19923;-57
2023/05/14 11:59:20;;;;;;;;;;;15.40;99.90;;;;;;5129901;27;19969;-56
2023/05/14 12:01:47;;;;;;;;;;;15.20;99.90;;;;;;5129404;27;20919;-57
2023/05/14 12:04:17;;;;;;;;;;;15.10;99.90;;;;;;5112920;27;19919;-57
2023/05/14 12:06:45;;;;;;;;;;;15.10;99.90;;;;;;5130357;27;20015;-56
2023/05/14 12:09:15;;;;;;;;;;;15.10;99.90;;;;;;5128549;27;20330;-56
2023/05/14 12:11:41;;;;;;;;;;;15.00;99.90;;;;;;5129135;27;19923;-57
2023/05/14 12:14:15;;;;;;;;;;;14.90;99.90;;;;;;5130606;27;19988;-57
2023/05/14 12:16:45;;;;;;;;;;;14.70;99.90;;;;;;5128638;27;19931;-55
2023/05/14 12:19:19;;;;;;;;;;;14.40;99.90;;;;;;5127450;27;20299;-57
2023/05/14 12:21:47;;;;;;;;;;;14.30;99.90;;;;;;5126427;27;20018;-57
2023/05/14 12:24:15;;;;;;;;;;;14.20;99.90;;;;;;5128413;27;19972;-57
2023/05/14 12:26:45;;;;;;;;;;;14.00;99.90;;;;;;5118898;27;19919;-56
2023/05/14 12:29:12;;;;;;;;;;;14.10;99.90;;;;;;5130904;27;19966;-55
2023/05/14 12:31:44;;;;;;;;;;;14.00;99.90;;;;;;5124804;27;19969;-57
2023/05/14 12:34:10;;;;;;;;;;;14.10;99.90;;;;;;5132296;27;19919;-56
2023/05/14 12:36:37;;;;;;;;;;;14.10;99.90;;;;;;5127940;27;19923;-57
2023/05/14 12:39:04;;;;;;;;;;;14.20;99.90;;;;;;5121497;27;20026;-57
2023/05/14 12:41:32;;;;;;;;;;;14.10;99.90;;;;;;5120361;27;20383;-56
2023/05/14 12:43:59;;;;;;;;;;;14.00;99.90;;;;;;5121158;27;19941;-57
2023/05/14 12:46:26;;;;;;;;;;;14.40;99.90;;;;;;5115713;27;20327;-57
2023/05/14 12:48:53;;;;;;;;;;;14.10;99.90;;;;;;5114740;27;19942;-57
2023/05/14 12:51:20;;;;;;;;;;;14.10;99.90;;;;;;5126569;27;20374;-55
2023/05/14 12:53:47;;;;;;;;;;;14.20;99.90;;;;;;5124046;27;19923;-57
2023/05/14 12:56:13;;;;;;;;;;;14.20;99.90;;;;;;5131565;27;19923;-56
2023/05/14 12:58:40;;;;;;;;;;;14.10;99.90;;;;;;5131094;27;19955;-56
2023/05/14 13:01:07;;;;;;;;;;;14.00;99.90;;;;;;5129624;27;20294;-57
2023/05/14 13:03:34;;;;;;;;;;;14.00;99.90;;;;;;5129818;27;19919;-55
2023/05/14 13:06:01;;;;;;;;;;;14.10;99.90;;;;;;5130227;27;19968;-57
2023/05/14 13:08:27;;;;;;;;;;;14.10;99.90;;;;;;5129364;27;19975;-56
2023/05/14 13:10:54;;;;;;;;;;;14.20;99.90;;;;;;5112862;27;19919;-56
2023/05/14 13:13:22;;;;;;;;;;;14.30;99.90;;;;;;5130332;27;20249;-55
2023/05/14 13:15:48;;;;;;;;;;;14.40;99.90;;;;;;5131106;27;19973;-56
2023/05/14 13:18:16;;;;;;;;;;;14.60;99.90;;;;;;5129169;27;19924;-56
2023/05/14 13:20:43;;;;;;;;;;;14.80;99.90;;;;;;5127185;27;19923;-57
2023/05/14 13:23:10;;;;;;;;;;;14.90;99.90;;;;;;5129422;27;19962;-58
2023/05/14 13:25:37;;;;;;;;;;;14.90;99.90;;;;;;5123935;27;19988;-58
2023/05/14 13:28:04;;;;;;;;;;;14.90;99.90;;;;;;5123174;27;19963;-55
2023/05/14 13:30:31;;;;;;;;;;;15.00;99.90;;;;;;5106580;27;19975;-58
2023/05/14 13:32:58;;;;;;;;;;;14.90;99.90;;;;;;5128519;27;20402;-56
2023/05/14 13:35:25;;;;;;;;;;;14.90;99.90;;;;;;5131705;27;19930;-57
2023/05/14 13:37:52;;;;;;;;;;;14.70;99.90;;;;;;5131770;27;20314;-57
2023/05/14 13:40:18;;;;;;;;;;;14.60;99.90;;;;;;5131787;27;19920;-57
2023/05/14 13:42:45;;;;;;;;;;;14.40;99.90;;;;;;5131234;27;20444;-58
2023/05/14 13:45:12;;;;;;;;;;;14.20;99.90;;;;;;5125532;27;20016;-57
2023/05/14 13:47:38;;;;;;;;;;;14.20;99.90;;;;;;5120532;27;19920;-53
2023/05/14 13:50:06;;;;;;;;;;;14.10;99.90;;;;;;5119331;27;19919;-55
2023/05/14 13:52:32;;;;;;;;;;;14.20;99.90;;;;;;5123384;27;19924;-57
2023/05/14 13:54:59;;;;;;;;;;;14.30;99.90;;;;;;5119343;27;19920;-58
2023/05/14 13:57:26;;;;;;;;;;;14.40;99.90;;;;;;5117527;28;19948;-58
2023/05/14 13:59:52;;;;;;;;;;;14.60;99.90;;;;;;5123188;28;20014;-57
2023/05/14 14:02:19;;;;;;;;;;;14.90;99.90;;;;;;5117068;27;19965;-58
2023/05/14 14:04:46;;;;;;;;;;;15.00;99.90;;;;;;5129373;27;19994;-59
2023/05/14 14:07:13;;;;;;;;;;;15.10;99.90;;;;;;5123069;28;20372;-56
2023/05/14 14:09:39;;;;;;;;;;;15.20;99.90;;;;;;5115051;28;19919;-58
2023/05/14 14:12:06;;;;;;;;;;;15.20;99.90;;;;;;5118467;27;19920;-55
2023/05/14 14:14:33;;;;;;;;;;;15.00;99.90;;;;;;5115429;27;19920;-57
2023/05/14 14:17:00;;;;;;;;;;;14.90;99.90;;;;;;5121094;28;19931;-56
2023/05/14 14:19:26;;;;;;;;;;;14.80;99.90;;;;;;5117835;28;19965;-57
2023/05/14 14:21:53;;;;;;;;;;;14.80;99.90;;;;;;5121787;27;19969;-56